createdAt,value
2023-03-26T00:01:41.011Z,92.93
2023-03-26T00:04:08.696Z,101.18
2023-03-26T00:06:39.950Z,91.57
2023-03-26T00:09:09.970Z,91.45
2023-03-26T00:11:37.719Z,97.75
2023-03-26T00:14:05.911Z,101.32
2023-03-26T00:16:33.592Z,91.75
2023-03-26T00:19:02.008Z,97.13
2023-03-26T00:21:30.787Z,91.00
2023-03-26T00:24:01.308Z,96.68
2023-03-26T00:26:31.373Z,92.72
2023-03-26T00:29:00.555Z,93.93
2023-03-26T00:31:28.160Z,88.10
2023-03-26T00:33:57.025Z,90.10
2023-03-26T00:36:27.011Z,82.30
2023-03-26T00:38:55.623Z,79.50
2023-03-26T00:41:31.273Z,84.55
2023-03-26T00:44:00.690Z,71.18
2023-03-26T00:46:30.873Z,70.93
2023-03-26T00:49:02.007Z,69.22
2023-03-26T00:51:29.534Z,59.40
2023-03-26T00:53:58.359Z,64.43
2023-03-26T00:56:26.596Z,58.60
2023-03-26T01:01:29.363Z,60.00
2023-03-26T01:04:08.059Z,51.55
2023-03-26T01:06:39.259Z,47.65
2023-03-26T01:09:19.154Z,54.72
2023-03-26T01:11:49.075Z,48.35
2023-03-26T01:14:27.126Z,48.05
2023-03-26T01:16:57.311Z,45.75
2023-03-26T01:20:05.901Z,46.03
2023-03-26T01:22:37.931Z,50.83
2023-03-26T01:25:05.762Z,54.70
2023-03-26T01:27:51.152Z,61.97
2023-03-26T01:30:24.052Z,62.08
2023-03-26T01:33:14.516Z,70.90
2023-03-26T01:35:58.499Z,78.75
2023-03-26T01:38:48.417Z,58.35
2023-03-26T01:41:42.783Z,59.55
2023-03-26T01:44:28.825Z,66.15
2023-03-26T01:46:58.470Z,70.20
2023-03-26T01:49:28.499Z,81.72
2023-03-26T01:51:58.218Z,77.97
2023-03-26T01:54:28.900Z,73.03
2023-03-26T01:57:06.862Z,66.28
2023-03-26T02:00:04.896Z,78.20
2023-03-26T02:03:05.287Z,64.10
2023-03-26T02:05:35.482Z,85.00
2023-03-26T02:08:23.590Z,72.93
2023-03-26T02:11:00.214Z,66.90
2023-03-26T02:13:28.191Z,59.30
2023-03-26T02:16:01.697Z,68.32
2023-03-26T02:18:39.380Z,74.07
2023-03-26T02:21:11.100Z,81.63
2023-03-26T02:23:47.220Z,86.53
2023-03-26T02:26:18.110Z,90.18
2023-03-26T02:29:13.702Z,79.70
2023-03-26T02:31:43.910Z,79.05
2023-03-26T02:34:11.557Z,79.60
2023-03-26T02:36:43.290Z,81.38
2023-03-26T02:39:11.595Z,78.03
2023-03-26T02:44:09.927Z,81.63
2023-03-26T02:46:55.954Z,87.38
2023-03-26T02:49:42.077Z,84.90
2023-03-26T02:52:11.283Z,95.78
2023-03-26T02:54:38.905Z,91.43
2023-03-26T02:57:18.519Z,93.43
2023-03-26T02:59:50.645Z,97.47
2023-03-26T03:02:39.021Z,93.80
2023-03-26T03:05:31.797Z,105.07
2023-03-26T03:08:23.175Z,106.78
2023-03-26T03:11:25.074Z,107.25
2023-03-26T03:13:53.916Z,102.25
2023-03-26T03:16:28.023Z,129.20
2023-03-26T03:18:58.143Z,105.15
2023-03-26T03:21:46.397Z,110.65
2023-03-26T03:24:14.211Z,110.25
2023-03-26T03:26:46.548Z,106.72
2023-03-26T03:29:24.027Z,125.55
2023-03-26T03:31:51.699Z,112.97
2023-03-26T03:34:38.824Z,98.38
2023-03-26T03:37:07.119Z,107.55
2023-03-26T03:39:49.911Z,111.80
2023-03-26T03:42:20.571Z,119.65
2023-03-26T03:44:50.280Z,115.25
2023-03-26T03:47:50.060Z,105.13
2023-03-26T03:50:23.861Z,112.32
2023-03-26T03:53:06.724Z,105.95
2023-03-26T03:55:38.526Z,109.07
2023-03-26T03:58:06.387Z,111.35
2023-03-26T04:00:33.835Z,108.57
2023-03-26T04:03:33.380Z,98.57
2023-03-26T04:06:11.350Z,93.75
2023-03-26T04:08:39.780Z,80.07
2023-03-26T04:11:08.419Z,76.25
2023-03-26T04:13:59.658Z,81.47
2023-03-26T04:16:39.585Z,82.22
2023-03-26T04:19:07.060Z,75.15
2023-03-26T04:21:38.019Z,68.20
2023-03-26T04:24:07.507Z,62.85
2023-03-26T04:29:45.975Z,58.45
2023-03-26T04:32:26.867Z,67.70
2023-03-26T04:34:56.547Z,70.70
2023-03-26T04:37:40.974Z,56.63
2023-03-26T04:40:17.925Z,54.95
2023-03-26T04:43:12.747Z,55.30
2023-03-26T04:46:03.722Z,64.35
2023-03-26T04:48:36.038Z,65.28
2023-03-26T04:51:03.599Z,73.85
2023-03-26T04:53:30.926Z,76.35
2023-03-26T04:56:58.314Z,80.90
2023-03-26T04:59:30.711Z,83.03
2023-03-26T05:02:00.456Z,69.88
2023-03-26T05:04:32.164Z,71.45
2023-03-26T05:09:36.019Z,37.00
2023-03-26T05:12:17.579Z,37.17
2023-03-26T05:14:59.727Z,30.83
2023-03-26T05:17:46.765Z,43.08
2023-03-26T05:20:27.113Z,26.02
2023-03-26T05:22:54.744Z,24.48
2023-03-26T05:25:26.864Z,27.10
2023-03-26T05:27:55.558Z,45.00
2023-03-26T05:30:27.076Z,38.55
2023-03-26T05:32:59.314Z,53.15
2023-03-26T05:35:31.991Z,44.13
2023-03-26T05:37:59.521Z,61.88
2023-03-26T05:40:27.290Z,52.78
2023-03-26T05:43:00.325Z,61.75
2023-03-26T05:46:00.622Z,51.28
2023-03-26T05:48:31.688Z,60.78
2023-03-26T05:50:59.857Z,65.38
2023-03-26T05:53:29.734Z,53.03
2023-03-26T05:56:15.688Z,69.45
2023-03-26T05:59:01.771Z,70.10
2023-03-26T06:01:51.067Z,54.58
2023-03-26T06:04:41.444Z,41.85
2023-03-26T06:07:28.501Z,47.95
2023-03-26T06:10:09.788Z,32.60
2023-03-26T06:12:37.330Z,35.13
2023-03-26T06:15:06.346Z,23.10
2023-03-26T06:17:55.804Z,39.05
2023-03-26T06:20:59.028Z,37.25
2023-03-26T06:23:41.050Z,42.10
2023-03-26T06:26:27.121Z,37.55
2023-03-26T06:29:03.211Z,38.63
2023-03-26T06:31:52.308Z,44.55
2023-03-26T06:34:26.257Z,36.88
2023-03-26T06:36:54.195Z,34.35
2023-03-26T06:39:22.749Z,36.00
2023-03-26T06:42:13.426Z,32.38
2023-03-26T06:44:59.538Z,31.95
2023-03-26T06:47:36.049Z,29.83
2023-03-26T06:50:15.168Z,26.63
2023-03-26T06:53:01.248Z,28.23
2023-03-26T06:55:53.410Z,24.70
2023-03-26T06:58:39.504Z,24.70
2023-03-26T07:01:42.498Z,23.65
2023-03-26T07:04:39.061Z,19.88
2023-03-26T07:07:25.124Z,24.02
2023-03-26T07:10:11.113Z,21.88
2023-03-26T07:12:57.068Z,16.98
2023-03-26T07:15:59.964Z,14.98
2023-03-26T07:19:02.667Z,18.88
2023-03-26T07:21:35.399Z,17.90
2023-03-26T07:24:11.504Z,16.48
2023-03-26T07:27:40.591Z,15.27
2023-03-26T07:30:40.579Z,18.33
2023-03-26T07:33:35.962Z,15.57
2023-03-26T07:36:36.342Z,17.48
2023-03-26T07:39:44.428Z,17.33
2023-03-26T07:42:56.161Z,15.05
2023-03-26T07:45:45.562Z,18.00
2023-03-26T07:48:27.769Z,14.90
2023-03-26T07:51:12.554Z,20.95
2023-03-26T07:54:11.331Z,17.13
2023-03-26T07:56:58.884Z,13.55
2023-03-26T08:00:01.628Z,17.88
2023-03-26T08:03:13.721Z,15.50
2023-03-26T08:06:14.946Z,14.90
2023-03-26T08:09:32.320Z,16.33
2023-03-26T08:12:26.864Z,14.90
2023-03-26T08:15:08.393Z,15.30
2023-03-26T08:17:45.220Z,15.00
2023-03-26T08:20:38.523Z,13.88
2023-03-26T08:23:12.964Z,13.82
2023-03-26T08:25:54.004Z,16.30
2023-03-26T08:28:31.855Z,15.23
2023-03-26T08:31:03.157Z,18.70
2023-03-26T08:33:31.394Z,19.85
2023-03-26T08:35:58.784Z,15.15
2023-03-26T08:38:26.313Z,17.35
2023-03-26T08:41:12.052Z,11.82
2023-03-26T08:44:10.341Z,14.40
2023-03-26T08:47:08.575Z,14.80
2023-03-26T08:49:56.889Z,17.90
2023-03-26T08:52:39.367Z,15.15
2023-03-26T08:55:09.627Z,20.13
2023-03-26T08:57:57.669Z,15.55
2023-03-26T09:01:08.064Z,16.02
2023-03-26T09:03:53.704Z,13.93
2023-03-26T09:06:44.010Z,16.50
2023-03-26T09:09:34.881Z,11.85
2023-03-26T09:12:14.311Z,16.65
2023-03-26T09:15:16.716Z,12.82
2023-03-26T09:18:06.192Z,11.60
2023-03-26T09:20:49.116Z,9.07
2023-03-26T09:24:07.620Z,11.50
2023-03-26T09:27:00.821Z,13.32
2023-03-26T09:30:16.770Z,12.00
2023-03-26T09:32:56.408Z,13.52
2023-03-26T09:35:42.489Z,16.30
2023-03-26T09:38:38.410Z,14.57
2023-03-26T09:41:31.502Z,11.60
2023-03-26T09:46:57.321Z,12.02
2023-03-26T09:49:39.888Z,12.90
2023-03-26T09:52:34.679Z,10.13
2023-03-26T09:56:04.532Z,12.20
2023-03-26T09:59:11.073Z,18.05
2023-03-26T10:01:51.916Z,11.35
2023-03-26T10:04:42.253Z,11.35
2023-03-26T10:07:30.407Z,13.40
2023-03-26T10:10:05.972Z,12.32
2023-03-26T10:12:48.288Z,13.75
2023-03-26T10:15:16.317Z,13.05
2023-03-26T10:17:49.057Z,11.93
2023-03-26T10:20:50.776Z,11.23
2023-03-26T10:23:48.528Z,11.90
2023-03-26T10:26:26.356Z,14.13
2023-03-26T10:29:11.934Z,12.85
2023-03-26T10:31:48.534Z,14.85
2023-03-26T10:34:29.335Z,13.35
2023-03-26T10:37:30.035Z,15.10
2023-03-26T10:40:15.729Z,13.63
2023-03-26T10:43:14.010Z,18.58
2023-03-26T10:45:50.141Z,11.90
2023-03-26T10:48:54.699Z,17.00
2023-03-26T10:51:36.959Z,17.05
2023-03-26T10:54:30.853Z,8.85
2023-03-26T10:57:00.897Z,11.02
2023-03-26T10:59:28.639Z,10.18
2023-03-26T11:02:16.032Z,11.55
2023-03-26T11:04:55.906Z,14.55
2023-03-26T11:07:28.564Z,11.13
2023-03-26T11:10:14.192Z,13.75
2023-03-26T11:13:09.371Z,10.48
2023-03-26T11:15:45.596Z,11.45
2023-03-26T11:18:19.296Z,11.93
2023-03-26T11:21:18.633Z,13.85
2023-03-26T11:24:06.635Z,11.98
2023-03-26T11:27:20.864Z,20.08
2023-03-26T11:30:06.427Z,11.88
2023-03-26T11:32:44.588Z,10.57
2023-03-26T11:35:41.683Z,19.27
2023-03-26T11:38:37.693Z,9.23
2023-03-26T11:41:16.946Z,13.27
2023-03-26T11:44:16.104Z,13.35
2023-03-26T11:46:47.174Z,12.57
2023-03-26T11:49:18.889Z,8.20
2023-03-26T11:51:49.018Z,14.20
2023-03-26T11:54:23.602Z,14.10
2023-03-26T11:57:04.524Z,14.10
2023-03-26T11:59:48.892Z,15.10
2023-03-26T12:02:29.898Z,10.25
2023-03-26T12:05:12.586Z,14.27
2023-03-26T12:07:53.775Z,12.85
2023-03-26T12:10:29.272Z,13.82
2023-03-26T12:13:03.417Z,16.00
2023-03-26T12:15:32.381Z,11.23
2023-03-26T12:18:21.033Z,15.32
2023-03-26T12:20:49.708Z,12.73
2023-03-26T12:23:39.327Z,13.63
2023-03-26T12:26:21.536Z,10.68
2023-03-26T12:28:51.374Z,7.80
2023-03-26T12:31:19.806Z,9.77
2023-03-26T12:34:16.530Z,12.73
2023-03-26T12:36:56.335Z,8.32
2023-03-26T12:40:09.700Z,8.30
2023-03-26T12:44:44.238Z,8.15
2023-03-26T12:45:28.220Z,8.25
2023-03-26T12:48:03.729Z,12.75
2023-03-26T12:50:55.196Z,15.15
2023-03-26T12:53:46.022Z,13.40
2023-03-26T12:56:38.750Z,8.63
2023-03-26T12:59:06.120Z,7.93
2023-03-26T13:01:36.586Z,12.63
2023-03-26T13:04:16.025Z,11.80
2023-03-26T13:07:01.034Z,6.43
2023-03-26T13:09:47.223Z,12.52
2023-03-26T13:12:29.839Z,14.43
2023-03-26T13:15:25.195Z,8.85
2023-03-26T13:18:07.875Z,12.52
2023-03-26T13:20:49.573Z,10.18
2023-03-26T13:23:43.062Z,9.20
2023-03-26T13:26:49.962Z,12.50
2023-03-26T13:29:40.844Z,14.02
2023-03-26T13:32:30.629Z,12.90
2023-03-26T13:35:24.593Z,15.48
2023-03-26T13:38:22.177Z,8.13
2023-03-26T13:41:26.979Z,14.25
2023-03-26T13:44:09.964Z,8.57
2023-03-26T13:46:43.495Z,15.93
2023-03-26T13:49:16.858Z,11.65
2023-03-26T13:52:10.280Z,7.78
2023-03-26T13:54:47.965Z,8.27
2023-03-26T13:57:39.682Z,14.63
2023-03-26T14:00:26.954Z,16.00
2023-03-26T14:03:04.369Z,12.32
2023-03-26T14:05:39.699Z,20.08
2023-03-26T14:08:27.291Z,20.55
2023-03-26T14:11:39.047Z,16.73
2023-03-26T14:14:36.408Z,20.42
2023-03-26T14:17:38.730Z,22.67
2023-03-26T14:20:15.139Z,28.98
2023-03-26T14:22:42.595Z,29.33
2023-03-26T14:25:25.980Z,31.48
2023-03-26T14:28:11.339Z,35.42
2023-03-26T14:30:57.667Z,25.92
2023-03-26T14:33:53.967Z,23.85
2023-03-26T14:36:21.431Z,29.75
2023-03-26T14:39:12.960Z,23.55
2023-03-26T14:41:51.430Z,28.92
2023-03-26T14:45:06.771Z,19.67
2023-03-26T14:47:42.072Z,19.75
2023-03-26T14:50:36.043Z,25.75
2023-03-26T14:53:19.073Z,21.55
2023-03-26T14:56:24.733Z,20.40
2023-03-26T14:59:22.542Z,17.08
2023-03-26T15:02:24.382Z,24.38
2023-03-26T15:04:54.916Z,20.02
2023-03-26T15:07:45.318Z,17.02
2023-03-26T15:10:31.074Z,12.40
2023-03-26T15:13:10.954Z,17.92
2023-03-26T15:16:02.474Z,15.30
2023-03-26T15:18:51.590Z,20.70
2023-03-26T15:21:52.925Z,18.35
2023-03-26T15:24:47.656Z,20.15
2023-03-26T15:27:29.998Z,19.70
2023-03-26T15:30:42.423Z,21.83
2023-03-26T15:36:03.677Z,21.17
2023-03-26T15:39:00.492Z,19.45
2023-03-26T15:42:02.607Z,33.20
2023-03-26T15:44:53.116Z,40.75
2023-03-26T15:47:49.371Z,40.85
2023-03-26T15:50:27.302Z,23.70
2023-03-26T15:53:07.874Z,26.95
2023-03-26T15:58:28.202Z,34.63
2023-03-26T16:01:19.187Z,33.65
2023-03-26T16:04:14.817Z,34.85
2023-03-26T16:06:55.955Z,32.83
2023-03-26T16:10:11.168Z,46.13
2023-03-26T16:13:16.779Z,29.33
2023-03-26T16:15:56.209Z,29.30
2023-03-26T16:18:33.045Z,15.43
2023-03-26T16:21:32.137Z,16.65
2023-03-26T16:24:02.973Z,20.75
2023-03-26T16:27:02.000Z,15.20
2023-03-26T16:29:30.814Z,16.38
2023-03-26T16:32:06.161Z,12.52
2023-03-26T16:34:42.994Z,16.70
2023-03-26T16:37:33.766Z,16.38
2023-03-26T16:40:22.775Z,12.40
2023-03-26T16:43:02.368Z,13.18
2023-03-26T16:45:43.232Z,10.52
2023-03-26T16:48:21.185Z,9.70
2023-03-26T16:50:49.728Z,14.00
2023-03-26T16:53:46.509Z,20.27
2023-03-26T16:56:13.865Z,21.67
2023-03-26T16:58:41.140Z,13.70
2023-03-26T17:01:22.252Z,15.15
2023-03-26T17:04:26.136Z,13.20
2023-03-26T17:07:09.558Z,13.45
2023-03-26T17:09:46.746Z,16.48
2023-03-26T17:12:24.114Z,10.07
2023-03-26T17:15:25.709Z,13.20
2023-03-26T17:18:17.856Z,11.15
2023-03-26T17:21:01.434Z,16.13
2023-03-26T17:24:15.142Z,10.10
2023-03-26T17:27:00.520Z,15.32
2023-03-26T17:30:04.234Z,9.88
2023-03-26T17:32:54.580Z,7.97
2023-03-26T17:35:45.776Z,8.70
2023-03-26T17:38:16.357Z,6.25
2023-03-26T17:40:58.873Z,8.30
2023-03-26T17:43:57.109Z,11.25
2023-03-26T17:46:45.082Z,11.55
2023-03-26T17:49:16.540Z,11.65
2023-03-26T17:51:52.943Z,6.75
2023-03-26T17:54:41.676Z,10.30
2023-03-26T17:57:15.155Z,9.25
2023-03-26T17:59:45.241Z,12.90
2023-03-26T18:02:18.876Z,9.32
2023-03-26T18:04:50.078Z,7.18
2023-03-26T18:07:39.187Z,9.98
2023-03-26T18:10:33.428Z,9.88
2023-03-26T18:13:25.233Z,10.13
2023-03-26T18:16:13.484Z,8.35
2023-03-26T18:18:58.095Z,9.60
2023-03-26T18:21:28.663Z,9.32
2023-03-26T18:23:59.545Z,12.45
2023-03-26T18:26:43.446Z,8.82
2023-03-26T18:29:27.277Z,8.93
2023-03-26T18:32:07.615Z,10.27
2023-03-26T18:34:37.264Z,8.73
2023-03-26T18:37:22.753Z,10.32
2023-03-26T18:40:12.955Z,10.50
2023-03-26T18:42:44.404Z,12.82
2023-03-26T18:45:38.379Z,9.50
2023-03-26T18:48:19.409Z,12.30
2023-03-26T18:50:52.124Z,14.10
2023-03-26T18:53:23.012Z,14.48
2023-03-26T18:55:51.760Z,9.45
2023-03-26T18:58:33.121Z,12.02
2023-03-26T19:01:04.171Z,9.30
2023-03-26T19:03:35.757Z,10.50
2023-03-26T19:06:08.477Z,6.88
2023-03-26T19:08:39.122Z,7.05
2023-03-26T19:11:09.044Z,8.60
2023-03-26T19:13:41.633Z,10.15
2023-03-26T19:16:23.056Z,6.38
2023-03-26T19:18:51.177Z,10.85
2023-03-26T19:21:20.405Z,9.43
2023-03-26T19:23:48.200Z,10.85
2023-03-26T19:26:16.273Z,9.38
2023-03-26T19:28:51.688Z,9.90
2023-03-26T19:31:34.271Z,12.38
2023-03-26T19:34:41.260Z,12.23
2023-03-26T19:37:22.244Z,9.57
2023-03-26T19:39:49.611Z,11.18
2023-03-26T19:42:26.541Z,9.18
2023-03-26T19:44:55.191Z,8.48
2023-03-26T19:47:52.079Z,10.90
2023-03-26T19:50:28.653Z,8.45
2023-03-26T19:53:24.477Z,7.22
2023-03-26T19:55:59.397Z,9.57
2023-03-26T19:58:27.663Z,8.30
2023-03-26T20:00:56.666Z,7.30
2023-03-26T20:03:41.901Z,9.35
2023-03-26T20:06:15.165Z,8.98
2023-03-26T20:08:43.046Z,10.05
2023-03-26T20:13:42.122Z,13.02
2023-03-26T20:16:27.779Z,9.98
2023-03-26T20:19:02.546Z,10.30
2023-03-26T20:21:32.596Z,12.63
2023-03-26T20:23:59.962Z,8.75
2023-03-26T20:26:27.513Z,9.30
2023-03-26T20:28:54.904Z,10.68
2023-03-26T20:31:28.779Z,12.00
2023-03-26T20:33:57.818Z,8.07
2023-03-26T20:36:33.670Z,9.27
2023-03-26T20:39:06.279Z,10.05
2023-03-26T20:41:36.085Z,8.70
2023-03-26T20:44:03.972Z,7.93
2023-03-26T20:49:01.043Z,9.63
2023-03-26T20:51:29.077Z,10.43
2023-03-26T20:53:56.640Z,7.13
2023-03-26T20:56:24.066Z,8.10
2023-03-26T20:59:09.980Z,7.13
2023-03-26T21:04:07.565Z,9.60
2023-03-26T21:06:35.136Z,8.23
2023-03-26T21:09:02.662Z,10.52
2023-03-26T21:11:46.126Z,10.55
2023-03-26T21:14:23.327Z,8.65
2023-03-26T21:16:51.931Z,11.55
2023-03-26T21:19:20.516Z,10.18
2023-03-26T21:22:05.155Z,7.85
2023-03-26T21:24:45.303Z,9.60
2023-03-26T21:27:26.468Z,8.77
2023-03-26T21:29:55.605Z,9.57
2023-03-26T21:32:23.762Z,11.02
2023-03-26T21:34:58.525Z,9.75
2023-03-26T21:37:27.330Z,9.00
2023-03-26T21:42:22.398Z,9.57
2023-03-26T21:44:50.031Z,11.18
2023-03-26T21:47:17.951Z,9.15
2023-03-26T21:49:45.794Z,10.48
2023-03-26T21:52:15.280Z,8.80
2023-03-26T21:54:43.483Z,10.57
2023-03-26T21:57:31.416Z,15.02
2023-03-26T22:00:18.846Z,8.63
2023-03-26T22:03:11.577Z,13.63
2023-03-26T22:05:43.345Z,11.90
2023-03-26T22:08:30.571Z,12.65
2023-03-26T22:10:58.157Z,9.93
2023-03-26T22:13:25.868Z,9.00
2023-03-26T22:15:53.860Z,11.07
2023-03-26T22:20:49.923Z,10.63
2023-03-26T22:25:46.569Z,12.57
2023-03-26T22:28:14.156Z,14.43
2023-03-26T22:30:42.230Z,12.70
2023-03-26T22:33:12.898Z,11.35
2023-03-26T22:35:43.094Z,11.00
2023-03-26T22:38:11.982Z,10.48
2023-03-26T22:40:39.649Z,10.60
2023-03-26T22:43:09.609Z,10.60
2023-03-26T22:45:38.038Z,12.35
2023-03-26T22:48:05.618Z,14.07
2023-03-26T22:50:33.402Z,11.05
2023-03-26T22:53:00.876Z,11.07
2023-03-26T22:55:29.720Z,12.25
2023-03-26T22:57:57.936Z,12.00
2023-03-26T23:00:26.780Z,12.35
2023-03-26T23:03:00.790Z,12.93
2023-03-26T23:05:28.876Z,12.32
2023-03-26T23:07:57.388Z,17.13
2023-03-26T23:10:24.820Z,9.75
2023-03-26T23:12:53.078Z,12.85
2023-03-26T23:15:20.916Z,15.18
2023-03-26T23:17:54.505Z,9.43
2023-03-26T23:20:22.696Z,14.88
2023-03-26T23:22:50.155Z,10.95
2023-03-26T23:25:17.650Z,11.82
2023-03-26T23:27:45.057Z,13.15
2023-03-26T23:30:13.656Z,22.05
2023-03-26T23:32:41.803Z,17.13
2023-03-26T23:35:09.786Z,11.77
2023-03-26T23:37:37.201Z,14.68
2023-03-26T23:40:10.361Z,13.02
2023-03-26T23:42:39.517Z,12.38
2023-03-26T23:45:08.761Z,12.68
2023-03-26T23:47:36.231Z,8.80
2023-03-26T23:50:05.390Z,10.23
2023-03-26T23:52:32.914Z,13.95
2023-03-26T23:55:00.249Z,13.57
2023-03-26T23:57:27.756Z,9.88
2023-03-26T23:59:55.947Z,9.77
